Time,TemperatureF,DewpointF,PressureIn,WindDirection,WindDirectionDegrees,WindSpeedMPH,WindSpeedGustMPH,Humidity,HourlyPrecipIn,Conditions,Clouds,dailyrainin,SoftwareType,DateUTC
2013-06-27 03:12:00,67.0,66.0,29.73,SSE,159,1.0,3.0,97,0.00,,,2.02,,2013-06-27 07:12:00,
2013-06-27 04:52:00,67.0,66.0,29.72,SSE,156,0.0,5.0,97,0.00,,,1.67,,2013-06-27 08:52:00,
2013-06-27 05:53:00,68.0,67.0,29.72,SSE,153,0.0,5.0,97,0.00,,,1.51,,2013-06-27 09:53:00,
2013-06-27 06:01:00,68.0,67.0,29.72,SSE,153,0.0,5.0,97,0.00,,,1.51,,2013-06-27 10:01:00,
2013-06-27 06:44:00,68.0,67.0,29.73,SW,236,0.0,7.0,97,0.00,,,1.51,,2013-06-27 10:44:00,
2013-06-27 07:12:00,69.0,68.0,29.73,WSW,253,0.0,3.0,97,0.00,,,1.45,,2013-06-27 11:12:00,
2013-06-27 07:43:00,69.0,68.0,29.73,WSW,257,0.0,3.0,97,0.00,,,1.45,,2013-06-27 11:43:00,
2013-06-27 08:42:00,69.0,68.0,29.74,West,272,0.0,4.0,97,0.00,,,1.44,,2013-06-27 12:42:00,
2013-06-27 09:01:00,69.0,68.0,29.74,West,272,0.0,0.0,97,0.00,,,1.44,,2013-06-27 13:01:00,
2013-06-27 09:11:00,69.0,68.0,29.73,West,272,0.0,0.0,97,0.00,,,1.44,,2013-06-27 13:11:00,
2013-06-27 09:34:00,70.0,69.0,29.74,West,271,0.0,4.0,97,0.00,,,1.44,,2013-06-27 13:34:00,
2013-06-27 10:22:00,71.0,70.0,29.73,West,276,0.0,4.0,97,0.00,,,1.44,,2013-06-27 14:22:00,
2013-06-27 10:33:00,71.0,70.0,29.72,West,276,0.0,4.0,97,0.00,,,1.44,,2013-06-27 14:33:00,
2013-06-27 10:52:00,71.0,70.0,29.72,West,276,0.0,3.0,98,0.00,,,1.44,,2013-06-27 14:52:00,
2013-06-27 11:22:00,71.0,70.0,29.72,West,276,0.0,5.0,97,0.00,,,1.44,,2013-06-27 15:22:00,
2013-06-27 11:33:00,71.0,70.0,29.73,West,276,0.0,3.0,98,0.00,,,1.44,,2013-06-27 15:33:00,
2013-06-27 11:42:00,72.0,71.0,29.74,West,278,1.0,6.0,98,0.00,,,1.44,,2013-06-27 15:42:00,
2013-06-27 12:02:00,72.0,71.0,29.73,West,278,0.0,6.0,98,0.00,,,1.44,,2013-06-27 16:02:00,
2013-06-27 12:34:00,73.0,72.0,29.73,West,276,2.0,7.0,98,0.00,,,1.44,,2013-06-27 16:34:00,
2013-06-27 12:43:00,73.0,72.0,29.72,West,276,2.0,7.0,97,0.00,,,1.44,,2013-06-27 16:43:00,
2013-06-27 12:53:00,73.0,72.0,29.72,West,276,2.0,7.0,97,0.00,,,1.44,,2013-06-27 16:53:00,
2013-06-27 13:02:00,74.0,73.0,29.73,West,275,3.0,7.0,97,0.00,,,1.44,,2013-06-27 17:02:00,
2013-06-27 13:11:00,73.0,72.0,29.73,WNW,282,3.0,6.0,97,0.00,,,1.44,,2013-06-27 17:11:00,
2013-06-27 13:33:00,74.0,72.0,29.73,West,281,2.0,7.0,95,0.00,,,1.44,,2013-06-27 17:33:00,
2013-06-27 13:43:00,74.0,72.0,29.73,West,281,2.0,7.0,95,0.00,,,1.44,,2013-06-27 17:43:00,
2013-06-27 14:44:00,79.0,73.0,29.72,NNW,334,3.0,8.0,82,0.00,,,0.00,,2013-06-27 18:44:00,
2013-06-27 14:52:00,79.0,73.0,29.72,NNW,334,3.0,8.0,82,0.00,,,0.00,,2013-06-27 18:52:00,
2013-06-27 15:01:00,79.0,72.0,29.72,West,262,5.0,11.0,80,0.00,,,0.00,,2013-06-27 19:01:00,
2013-06-27 15:11:00,80.0,73.0,29.72,NNW,329,5.0,8.0,79,0.00,,,0.00,,2013-06-27 19:11:00,
2013-06-27 15:34:00,81.0,73.0,29.71,NNW,329,1.0,10.0,78,0.00,,,0.00,,2013-06-27 19:34:00,
2013-06-27 15:53:00,82.0,74.0,29.72,NW,306,1.0,10.0,76,0.00,,,0.00,,2013-06-27 19:53:00,
2013-06-27 16:02:00,83.0,74.0,29.72,NW,325,4.0,9.0,74,0.00,,,0.00,,2013-06-27 20:02:00,
2013-06-27 16:54:00,83.0,73.0,29.72,West,278,5.0,10.0,71,0.00,,,0.00,,2013-06-27 20:54:00,
2013-06-27 17:14:00,84.0,73.0,29.72,West,261,3.0,9.0,70,0.00,,,0.00,,2013-06-27 21:14:00,
2013-06-27 17:47:00,84.0,74.0,29.70,West,269,3.0,9.0,71,0.00,,,0.00,,2013-06-27 21:47:00,
2013-06-27 17:53:00,84.0,74.0,29.70,West,269,3.0,9.0,71,0.00,,,0.00,,2013-06-27 21:53:00,
2013-06-27 18:06:00,84.0,73.0,29.70,WSW,249,4.0,12.0,70,0.00,,,0.00,,2013-06-27 22:06:00,
2013-06-27 18:35:00,84.0,73.0,29.70,WSW,255,3.0,10.0,69,0.00,,,0.00,,2013-06-27 22:35:00,
2013-06-27 19:05:00,84.0,73.0,29.70,West,263,3.0,10.0,70,0.00,,,0.00,,2013-06-27 23:05:00,
2013-06-27 19:15:00,84.0,73.0,29.70,West,280,4.0,8.0,69,0.00,,,0.00,,2013-06-27 23:15:00,
2013-06-27 19:35:00,83.0,73.0,29.69,West,267,4.0,8.0,71,0.00,,,0.00,,2013-06-27 23:35:00,
2013-06-27 19:45:00,83.0,73.0,29.69,West,271,2.0,7.0,72,0.00,,,0.00,,2013-06-27 23:45:00,
2013-06-27 19:55:00,83.0,73.0,29.69,West,271,3.0,6.0,73,0.00,,,0.00,,2013-06-27 23:55:00,
2013-06-27 20:07:00,83.0,73.0,29.70,West,265,4.0,8.0,71,0.00,,,0.00,,2013-06-28 00:07:00,
2013-06-27 20:14:00,83.0,73.0,29.71,West,265,3.0,6.0,72,0.00,,,0.00,,2013-06-28 00:14:00,
2013-06-27 20:29:00,83.0,73.0,29.71,West,266,2.0,6.0,71,0.00,,,0.00,,2013-06-28 00:29:00,
2013-06-27 20:35:00,83.0,73.0,29.71,West,266,1.0,5.0,72,0.00,,,0.00,,2013-06-28 00:35:00,
2013-06-27 20:45:00,82.0,72.0,29.70,West,266,0.0,3.0,73,0.00,,,0.00,,2013-06-28 00:45:00,
2013-06-27 20:54:00,82.0,73.0,29.71,West,266,0.0,3.0,74,0.00,,,0.00,,2013-06-28 00:54:00,
2013-06-27 21:08:00,81.0,72.0,29.71,West,266,0.0,2.0,75,0.00,,,0.00,,2013-06-28 01:08:00,
2013-06-27 21:14:00,81.0,73.0,29.70,West,266,0.0,1.0,76,0.00,,,0.00,,2013-06-28 01:14:00,
2013-06-27 21:25:00,81.0,73.0,29.70,West,266,0.0,1.0,76,0.00,,,0.00,,2013-06-28 01:25:00,
2013-06-27 21:56:00,79.0,72.0,29.70,West,266,1.0,3.0,80,0.00,,,0.00,,2013-06-28 01:56:00,
2013-06-27 22:07:00,79.0,72.0,29.69,West,266,0.0,4.0,79,0.00,,,0.00,,2013-06-28 02:07:00,
2013-06-27 22:49:00,77.0,70.0,29.69,West,266,0.0,2.0,80,0.00,,,0.00,,2013-06-28 02:49:00,